Current Conditions
Overcast
Conditions



Pressure
30.24 (inHG) - 1024.02 (mb)
Visibility

10.0 (miles) - 16.1 (km)
Temperature
19  °F
Temperature
5  °F
Dewpoint
53  %
 Humidity
Wind Speed
8  mph
7  kts
13  km/h
3.6  m/s
Wind Direction
N
45°
E
90°
135°
S
180°
225°
W
270°
315°
 150°

South South
East
Airport Data
KMHT
Manchester-Boston Regional Airport
Metar :KMHT 050853Z 15007KT 10SM OVC065 M07/M15 A3024 RMK AO2 SLP265 T10721150 58029 $
Sun 5th February 03:53 am
Raw Metar Info
Raw METAR is the most common format in the world for the transmission of observational weather data. It is highly standardized through the International Civil Aviation Organization (ICAO), which allows it to be understood throughout most of the world.
API Info
Data Provided by
https://www.checkwx.com/weather/KMHT

Aviation Weather providing METAR, TAF, AIRMET, SIGMET and OUTLOOK Weather Reports
© Info
CSS/SVG/PHP scripts were developed by weather34 for use in the weather34 template © 2015-2023

Guide Info provided by Metar-Wikipedia